Norman, Minnesota
Current Conditions -  °F | °C
As of 3:12 AM on Friday 31 Oct 2014 (Local Time) from KMZH Reporting Station
Broken Clouds Broken Clouds  
Wind Chill: 16°   Ceiling: 3700
Heat Index: 28°   Visibility: 10mi
Dew Point: 18°   Wind: 17mph
Humidity: 64%   Direction: 10°N
Pressure: 30.45"   Gusts: 24mph
Location:  46.2985°N, 92.833°W
Report Text: KMZH 310812Z AUTO 01015G21KT 10SM BKN037 M02/M08 A3045 RMK AO2
Loading
Personal Weather Stations






























Interactive Weather Map
Tropical Storm Tracking
New forecast layout! Learn more

10-Day Weather Forecast

Advertisements
Track Severe Weather on mobile